sensor_id;sensor_type;location;lat;lon;timestamp;temperature;humidity
9201;DHT22;4635;48.686;9.008;2022-11-24T00:02:15;4.70;38.50
9201;DHT22;4635;48.686;9.008;2022-11-24T00:04:47;4.80;91.10
9201;DHT22;4635;48.686;9.008;2022-11-24T00:07:15;4.80;78.10
9201;DHT22;4635;48.686;9.008;2022-11-24T00:09:47;4.90;99.90
9201;DHT22;4635;48.686;9.008;2022-11-24T00:12:15;4.80;99.90
9201;DHT22;4635;48.686;9.008;2022-11-24T00:14:45;4.80;98.70
9201;DHT22;4635;48.686;9.008;2022-11-24T00:17:13;4.80;99.90
9201;DHT22;4635;48.686;9.008;2022-11-24T00:19:41;4.70;99.90
9201;DHT22;4635;48.686;9.008;2022-11-24T00:22:12;4.70;99.90
9201;DHT22;4635;48.686;9.008;2022-11-24T00:24:42;4.60;99.90
9201;DHT22;4635;48.686;9.008;2022-11-24T00:27:16;4.70;88.50
9201;DHT22;4635;48.686;9.008;2022-11-24T00:29:44;4.70;41.60
9201;DHT22;4635;48.686;9.008;2022-11-24T00:32:15;4.60;99.90
9201;DHT22;4635;48.686;9.008;2022-11-24T00:35:02;4.80;99.90
9201;DHT22;4635;48.686;9.008;2022-11-24T00:37:31;4.80;91.70
9201;DHT22;4635;48.686;9.008;2022-11-24T00:40:00;4.80;79.30
9201;DHT22;4635;48.686;9.008;2022-11-24T00:42:32;4.80;99.90
9201;DHT22;4635;48.686;9.008;2022-11-24T00:45:01;4.90;50.60
9201;DHT22;4635;48.686;9.008;2022-11-24T00:47:31;5.00;98.00
9201;DHT22;4635;48.686;9.008;2022-11-24T00:50:00;5.00;61.90
9201;DHT22;4635;48.686;9.008;2022-11-24T00:52:32;5.00;99.90
9201;DHT22;4635;48.686;9.008;2022-11-24T00:55:00;4.90;41.90
9201;DHT22;4635;48.686;9.008;2022-11-24T00:57:33;5.00;50.50
9201;DHT22;4635;48.686;9.008;2022-11-24T01:00:05;5.00;56.20
9201;DHT22;4635;48.686;9.008;2022-11-24T01:02:37;5.10;99.90
9201;DHT22;4635;48.686;9.008;2022-11-24T01:05:08;5.10;88.70
9201;DHT22;4635;48.686;9.008;2022-11-24T01:07:38;5.00;61.40
9201;DHT22;4635;48.686;9.008;2022-11-24T01:10:07;5.10;54.00
9201;DHT22;4635;48.686;9.008;2022-11-24T01:12:39;5.00;75.80
9201;DHT22;4635;48.686;9.008;2022-11-24T01:15:09;5.10;58.10
9201;DHT22;4635;48.686;9.008;2022-11-24T01:17:42;5.10;96.00
9201;DHT22;4635;48.686;9.008;2022-11-24T01:20:12;5.10;42.30
9201;DHT22;4635;48.686;9.008;2022-11-24T01:22:42;5.10;35.90
9201;DHT22;4635;48.686;9.008;2022-11-24T01:25:11;5.10;59.60
9201;DHT22;4635;48.686;9.008;2022-11-24T01:27:44;5.10;57.10
9201;DHT22;4635;48.686;9.008;2022-11-24T01:30:13;5.10;18.60
9201;DHT22;4635;48.686;9.008;2022-11-24T01:32:46;5.00;15.90
9201;DHT22;4635;48.686;9.008;2022-11-24T01:35:14;5.00;93.50
9201;DHT22;4635;48.686;9.008;2022-11-24T01:37:47;5.10;99.90
9201;DHT22;4635;48.686;9.008;2022-11-24T01:40:16;5.10;49.30
9201;DHT22;4635;48.686;9.008;2022-11-24T01:42:50;5.10;99.90
9201;DHT22;4635;48.686;9.008;2022-11-24T01:45:33;5.10;99.90
9201;DHT22;4635;48.686;9.008;2022-11-24T01:48:08;5.10;99.90
9201;DHT22;4635;48.686;9.008;2022-11-24T01:50:42;5.20;99.90
9201;DHT22;4635;48.686;9.008;2022-11-24T01:53:11;5.20;99.90
9201;DHT22;4635;48.686;9.008;2022-11-24T01:55:41;5.30;99.90
9201;DHT22;4635;48.686;9.008;2022-11-24T01:58:14;5.30;99.90
9201;DHT22;4635;48.686;9.008;2022-11-24T02:00:45;5.40;99.90
9201;DHT22;4635;48.686;9.008;2022-11-24T02:03:16;5.30;99.90
9201;DHT22;4635;48.686;9.008;2022-11-24T02:05:49;5.30;99.90
9201;DHT22;4635;48.686;9.008;2022-11-24T02:08:21;5.30;99.90
9201;DHT22;4635;48.686;9.008;2022-11-24T02:10:54;5.20;17.80
9201;DHT22;4635;48.686;9.008;2022-11-24T02:13:28;5.10;99.90
9201;DHT22;4635;48.686;9.008;2022-11-24T02:16:03;5.10;13.70
9201;DHT22;4635;48.686;9.008;2022-11-24T02:18:41;5.10;58.40
9201;DHT22;4635;48.686;9.008;2022-11-24T02:21:13;5.20;99.90
9201;DHT22;4635;48.686;9.008;2022-11-24T02:23:46;5.10;53.40
9201;DHT22;4635;48.686;9.008;2022-11-24T02:26:29;5.10;88.90
9201;DHT22;4635;48.686;9.008;2022-11-24T02:28:58;5.20;60.80
9201;DHT22;4635;48.686;9.008;2022-11-24T02:31:26;5.10;67.40
9201;DHT22;4635;48.686;9.008;2022-11-24T02:33:56;5.10;1.00
9201;DHT22;4635;48.686;9.008;2022-11-24T02:36:24;5.10;1.00
9201;DHT22;4635;48.686;9.008;2022-11-24T02:38:53;5.10;1.00
9201;DHT22;4635;48.686;9.008;2022-11-24T02:41:25;5.10;99.90
9201;DHT22;4635;48.686;9.008;2022-11-24T02:43:58;5.10;99.90
9201;DHT22;4635;48.686;9.008;2022-11-24T02:46:27;5.10;1.00
9201;DHT22;4635;48.686;9.008;2022-11-24T02:48:56;5.10;1.00
9201;DHT22;4635;48.686;9.008;2022-11-24T02:51:25;5.10;1.00
9201;DHT22;4635;48.686;9.008;2022-11-24T02:53:54;5.10;64.90
9201;DHT22;4635;48.686;9.008;2022-11-24T02:56:22;5.10;57.60
9201;DHT22;4635;48.686;9.008;2022-11-24T02:58:52;5.10;58.90
9201;DHT22;4635;48.686;9.008;2022-11-24T03:01:22;5.10;64.80
9201;DHT22;4635;48.686;9.008;2022-11-24T03:03:50;5.00;69.50
9201;DHT22;4635;48.686;9.008;2022-11-24T03:06:20;5.00;54.40
9201;DHT22;4635;48.686;9.008;2022-11-24T03:08:50;5.00;99.90
9201;DHT22;4635;48.686;9.008;2022-11-24T03:11:19;5.00;44.10
9201;DHT22;4635;48.686;9.008;2022-11-24T03:13:49;5.10;62.00
9201;DHT22;4635;48.686;9.008;2022-11-24T03:16:24;5.10;59.90
9201;DHT22;4635;48.686;9.008;2022-11-24T03:18:54;5.20;99.90
9201;DHT22;4635;48.686;9.008;2022-11-24T03:21:22;5.20;99.90
9201;DHT22;4635;48.686;9.008;2022-11-24T03:23:52;5.20;82.00
9201;DHT22;4635;48.686;9.008;2022-11-24T03:26:24;5.10;61.40
9201;DHT22;4635;48.686;9.008;2022-11-24T03:28:55;5.10;95.40
9201;DHT22;4635;48.686;9.008;2022-11-24T03:31:28;5.20;97.20
9201;DHT22;4635;48.686;9.008;2022-11-24T03:33:57;5.10;99.90
9201;DHT22;4635;48.686;9.008;2022-11-24T03:36:28;5.20;99.20
9201;DHT22;4635;48.686;9.008;2022-11-24T03:38:56;5.20;99.90
9201;DHT22;4635;48.686;9.008;2022-11-24T03:41:38;5.10;99.90
9201;DHT22;4635;48.686;9.008;2022-11-24T03:44:07;5.10;99.90
9201;DHT22;4635;48.686;9.008;2022-11-24T03:46:38;5.20;81.20
9201;DHT22;4635;48.686;9.008;2022-11-24T03:49:07;5.30;71.40
9201;DHT22;4635;48.686;9.008;2022-11-24T03:51:36;5.30;91.00
9201;DHT22;4635;48.686;9.008;2022-11-24T03:54:08;5.30;49.20
9201;DHT22;4635;48.686;9.008;2022-11-24T03:56:38;5.40;19.50
9201;DHT22;4635;48.686;9.008;2022-11-24T03:59:07;5.30;99.90
9201;DHT22;4635;48.686;9.008;2022-11-24T04:01:53;5.40;58.40
9201;DHT22;4635;48.686;9.008;2022-11-24T04:04:22;5.40;65.40
9201;DHT22;4635;48.686;9.008;2022-11-24T04:06:53;5.40;43.20
9201;DHT22;4635;48.686;9.008;2022-11-24T04:09:23;5.40;94.10
9201;DHT22;4635;48.686;9.008;2022-11-24T04:11:53;5.50;43.60
9201;DHT22;4635;48.686;9.008;2022-11-24T04:14:45;5.60;58.50
9201;DHT22;4635;48.686;9.008;2022-11-24T04:17:34;5.70;11.40
9201;DHT22;4635;48.686;9.008;2022-11-24T04:20:23;5.70;41.60
9201;DHT22;4635;48.686;9.008;2022-11-24T04:28:14;5.90;34.60
9201;DHT22;4635;48.686;9.008;2022-11-24T04:30:50;5.90;1.00
9201;DHT22;4635;48.686;9.008;2022-11-24T04:33:21;5.90;1.00
9201;DHT22;4635;48.686;9.008;2022-11-24T04:35:57;5.80;1.00
9201;DHT22;4635;48.686;9.008;2022-11-24T04:38:26;5.70;1.00
9201;DHT22;4635;48.686;9.008;2022-11-24T04:41:00;5.70;1.00
9201;DHT22;4635;48.686;9.008;2022-11-24T04:43:30;5.60;1.00
9201;DHT22;4635;48.686;9.008;2022-11-24T04:45:59;5.50;1.00
9201;DHT22;4635;48.686;9.008;2022-11-24T04:48:37;5.40;1.00
9201;DHT22;4635;48.686;9.008;2022-11-24T04:51:07;5.40;1.00
9201;DHT22;4635;48.686;9.008;2022-11-24T04:53:39;5.30;1.00
9201;DHT22;4635;48.686;9.008;2022-11-24T04:56:09;5.30;1.00
9201;DHT22;4635;48.686;9.008;2022-11-24T04:58:41;5.20;1.00
9201;DHT22;4635;48.686;9.008;2022-11-24T05:01:09;5.30;1.00
9201;DHT22;4635;48.686;9.008;2022-11-24T05:03:42;5.30;1.00
9201;DHT22;4635;48.686;9.008;2022-11-24T05:06:12;5.30;1.00
9201;DHT22;4635;48.686;9.008;2022-11-24T05:08:41;5.20;1.00
9201;DHT22;4635;48.686;9.008;2022-11-24T05:11:12;5.20;1.00
9201;DHT22;4635;48.686;9.008;2022-11-24T05:13:41;5.20;1.00
9201;DHT22;4635;48.686;9.008;2022-11-24T05:16:12;5.10;1.00
9201;DHT22;4635;48.686;9.008;2022-11-24T05:18:43;5.00;1.00
9201;DHT22;4635;48.686;9.008;2022-11-24T05:21:26;5.00;1.00
9201;DHT22;4635;48.686;9.008;2022-11-24T05:23:57;5.00;1.00
9201;DHT22;4635;48.686;9.008;2022-11-24T05:26:27;5.10;1.00
9201;DHT22;4635;48.686;9.008;2022-11-24T05:28:58;5.10;1.00
9201;DHT22;4635;48.686;9.008;2022-11-24T05:31:35;5.10;1.00
9201;DHT22;4635;48.686;9.008;2022-11-24T05:34:06;5.00;1.00
9201;DHT22;4635;48.686;9.008;2022-11-24T05:36:35;5.00;1.00
9201;DHT22;4635;48.686;9.008;2022-11-24T05:39:29;5.00;1.00
9201;DHT22;4635;48.686;9.008;2022-11-24T05:42:04;4.90;99.90
9201;DHT22;4635;48.686;9.008;2022-11-24T05:44:47;4.90;1.00
9201;DHT22;4635;48.686;9.008;2022-11-24T05:47:19;4.90;1.00
9201;DHT22;4635;48.686;9.008;2022-11-24T05:50:02;4.90;1.00
9201;DHT22;4635;48.686;9.008;2022-11-24T05:52:34;4.90;1.00
9201;DHT22;4635;48.686;9.008;2022-11-24T05:55:08;4.90;39.10
9201;DHT22;4635;48.686;9.008;2022-11-24T05:57:38;5.00;28.10
9201;DHT22;4635;48.686;9.008;2022-11-24T06:00:17;5.10;21.50
9201;DHT22;4635;48.686;9.008;2022-11-24T06:03:11;5.10;29.90
9201;DHT22;4635;48.686;9.008;2022-11-24T06:06:19;5.10;6.90
9201;DHT22;4635;48.686;9.008;2022-11-24T06:08:52;5.40;17.20
9201;DHT22;4635;48.686;9.008;2022-11-24T06:11:25;5.30;58.50
9201;DHT22;4635;48.686;9.008;2022-11-24T06:14:01;5.30;22.50
9201;DHT22;4635;48.686;9.008;2022-11-24T06:17:05;5.40;1.00
9201;DHT22;4635;48.686;9.008;2022-11-24T06:19:46;5.50;1.00
9201;DHT22;4635;48.686;9.008;2022-11-24T06:25:47;5.50;1.00
9201;DHT22;4635;48.686;9.008;2022-11-24T06:28:43;5.50;1.00
9201;DHT22;4635;48.686;9.008;2022-11-24T06:31:54;5.50;1.00
9201;DHT22;4635;48.686;9.008;2022-11-24T06:36:36;5.50;6.90
9201;DHT22;4635;48.686;9.008;2022-11-24T07:06:58;5.70;1.00
9201;DHT22;4635;48.686;9.008;2022-11-24T07:09:53;5.70;1.00
9201;DHT22;4635;48.686;9.008;2022-11-24T14:37:58;8.30;99.90
9201;DHT22;4635;48.686;9.008;2022-11-24T14:44:41;8.20;99.90
9201;DHT22;4635;48.686;9.008;2022-11-24T14:47:56;8.20;99.90
9201;DHT22;4635;48.686;9.008;2022-11-24T14:54:12;8.00;99.90
9201;DHT22;4635;48.686;9.008;2022-11-24T14:57:39;7.90;99.90
9201;DHT22;4635;48.686;9.008;2022-11-24T15:04:21;7.70;99.90
9201;DHT22;4635;48.686;9.008;2022-11-24T15:41:11;6.60;99.90
9201;DHT22;4635;48.686;9.008;2022-11-24T15:44:04;6.60;99.90
9201;DHT22;4635;48.686;9.008;2022-11-24T15:46:54;6.60;99.90
9201;DHT22;4635;48.686;9.008;2022-11-24T15:53:32;6.50;99.90
9201;DHT22;4635;48.686;9.008;2022-11-24T16:09:08;6.30;99.90
9201;DHT22;4635;48.686;9.008;2022-11-24T16:12:19;6.30;99.90
9201;DHT22;4635;48.686;9.008;2022-11-24T16:15:11;6.20;99.90
9201;DHT22;4635;48.686;9.008;2022-11-24T16:18:25;5.40;99.90
9201;DHT22;4635;48.686;9.008;2022-11-24T16:34:43;5.80;99.90
9201;DHT22;4635;48.686;9.008;2022-11-24T16:37:21;5.90;99.90
9201;DHT22;4635;48.686;9.008;2022-11-24T16:40:48;5.90;99.90
9201;DHT22;4635;48.686;9.008;2022-11-24T16:43:35;5.80;99.90
9201;DHT22;4635;48.686;9.008;2022-11-24T16:46:32;5.80;99.90
9201;DHT22;4635;48.686;9.008;2022-11-24T16:49:43;5.70;99.90
9201;DHT22;4635;48.686;9.008;2022-11-24T16:52:23;5.40;99.90
9201;DHT22;4635;48.686;9.008;2022-11-24T16:54:55;5.40;99.90
9201;DHT22;4635;48.686;9.008;2022-11-24T16:57:51;5.50;99.90
9201;DHT22;4635;48.686;9.008;2022-11-24T17:00:43;5.40;99.90
9201;DHT22;4635;48.686;9.008;2022-11-24T17:03:53;5.30;99.90
9201;DHT22;4635;48.686;9.008;2022-11-24T17:12:55;5.20;99.90
9201;DHT22;4635;48.686;9.008;2022-11-24T17:15:41;4.90;99.90
9201;DHT22;4635;48.686;9.008;2022-11-24T17:18:22;5.10;99.90
9201;DHT22;4635;48.686;9.008;2022-11-24T17:21:23;5.10;99.90
9201;DHT22;4635;48.686;9.008;2022-11-24T17:24:39;5.00;99.90
9201;DHT22;4635;48.686;9.008;2022-11-24T17:27:15;5.00;99.90
9201;DHT22;4635;48.686;9.008;2022-11-24T17:30:10;4.90;99.90
9201;DHT22;4635;48.686;9.008;2022-11-24T17:32:46;4.90;99.90
9201;DHT22;4635;48.686;9.008;2022-11-24T17:35:28;4.90;99.90
9201;DHT22;4635;48.686;9.008;2022-11-24T17:38:19;4.80;99.90
9201;DHT22;4635;48.686;9.008;2022-11-24T17:40:51;4.80;99.90
9201;DHT22;4635;48.686;9.008;2022-11-24T17:43:29;4.70;99.90
9201;DHT22;4635;48.686;9.008;2022-11-24T17:46:08;4.60;99.90
9201;DHT22;4635;48.686;9.008;2022-11-24T17:48:43;4.60;99.90
9201;DHT22;4635;48.686;9.008;2022-11-24T17:51:50;4.50;99.90
9201;DHT22;4635;48.686;9.008;2022-11-24T17:54:57;4.40;99.90
9201;DHT22;4635;48.686;9.008;2022-11-24T17:57:37;4.40;99.90
9201;DHT22;4635;48.686;9.008;2022-11-24T18:00:14;4.40;99.90
9201;DHT22;4635;48.686;9.008;2022-11-24T18:03:00;4.30;99.90
9201;DHT22;4635;48.686;9.008;2022-11-24T18:05:40;4.30;99.90
9201;DHT22;4635;48.686;9.008;2022-11-24T18:08:18;4.20;99.90
9201;DHT22;4635;48.686;9.008;2022-11-24T18:10:50;4.20;99.90
9201;DHT22;4635;48.686;9.008;2022-11-24T18:13:31;4.10;99.90
9201;DHT22;4635;48.686;9.008;2022-11-24T18:19:32;4.00;99.90
9201;DHT22;4635;48.686;9.008;2022-11-24T18:22:09;4.00;99.90
9201;DHT22;4635;48.686;9.008;2022-11-24T18:24:40;3.90;99.90
9201;DHT22;4635;48.686;9.008;2022-11-24T18:27:29;3.80;99.90
9201;DHT22;4635;48.686;9.008;2022-11-24T18:30:12;3.80;99.90
9201;DHT22;4635;48.686;9.008;2022-11-24T18:33:01;3.80;99.90
9201;DHT22;4635;48.686;9.008;2022-11-24T18:35:38;3.70;99.90
9201;DHT22;4635;48.686;9.008;2022-11-24T18:38:46;3.70;99.90
9201;DHT22;4635;48.686;9.008;2022-11-24T18:41:17;3.70;99.90
9201;DHT22;4635;48.686;9.008;2022-11-24T18:43:50;3.70;99.90
9201;DHT22;4635;48.686;9.008;2022-11-24T18:46:22;3.70;99.90
9201;DHT22;4635;48.686;9.008;2022-11-24T18:48:59;3.70;99.90
9201;DHT22;4635;48.686;9.008;2022-11-24T18:51:47;3.70;99.90
9201;DHT22;4635;48.686;9.008;2022-11-24T18:54:24;3.60;99.90
9201;DHT22;4635;48.686;9.008;2022-11-24T18:57:08;3.50;99.90
9201;DHT22;4635;48.686;9.008;2022-11-24T19:00:10;3.50;99.90
9201;DHT22;4635;48.686;9.008;2022-11-24T19:02:41;3.50;99.90
9201;DHT22;4635;48.686;9.008;2022-11-24T19:08:31;3.40;99.90
9201;DHT22;4635;48.686;9.008;2022-11-24T19:11:16;3.40;99.90
9201;DHT22;4635;48.686;9.008;2022-11-24T19:13:49;3.40;99.90
9201;DHT22;4635;48.686;9.008;2022-11-24T19:16:26;3.40;99.90
9201;DHT22;4635;48.686;9.008;2022-11-24T19:18:58;3.30;99.90
9201;DHT22;4635;48.686;9.008;2022-11-24T19:21:45;3.40;99.90
9201;DHT22;4635;48.686;9.008;2022-11-24T19:24:20;3.30;99.90
9201;DHT22;4635;48.686;9.008;2022-11-24T19:27:00;3.30;99.90
9201;DHT22;4635;48.686;9.008;2022-11-24T19:29:39;3.30;99.90
9201;DHT22;4635;48.686;9.008;2022-11-24T19:32:15;3.20;99.90
9201;DHT22;4635;48.686;9.008;2022-11-24T19:34:48;3.20;99.90
9201;DHT22;4635;48.686;9.008;2022-11-24T19:37:18;3.10;99.90
9201;DHT22;4635;48.686;9.008;2022-11-24T19:40:00;3.10;99.90
9201;DHT22;4635;48.686;9.008;2022-11-24T19:42:30;3.20;99.90
9201;DHT22;4635;48.686;9.008;2022-11-24T19:45:01;3.00;99.90
9201;DHT22;4635;48.686;9.008;2022-11-24T19:47:36;3.20;99.90
9201;DHT22;4635;48.686;9.008;2022-11-24T19:50:09;3.10;99.90
9201;DHT22;4635;48.686;9.008;2022-11-24T19:52:42;3.20;99.90
9201;DHT22;4635;48.686;9.008;2022-11-24T19:55:16;3.20;99.90
9201;DHT22;4635;48.686;9.008;2022-11-24T19:57:53;3.20;99.90
9201;DHT22;4635;48.686;9.008;2022-11-24T20:00:24;3.20;99.90
9201;DHT22;4635;48.686;9.008;2022-11-24T20:02:54;3.20;99.90
9201;DHT22;4635;48.686;9.008;2022-11-24T20:05:26;3.20;99.90
9201;DHT22;4635;48.686;9.008;2022-11-24T20:07:58;3.10;99.90
9201;DHT22;4635;48.686;9.008;2022-11-24T20:10:35;3.10;99.90
9201;DHT22;4635;48.686;9.008;2022-11-24T20:13:14;3.00;99.90
9201;DHT22;4635;48.686;9.008;2022-11-24T20:15:44;3.00;99.90
9201;DHT22;4635;48.686;9.008;2022-11-24T20:18:13;3.00;99.90
9201;DHT22;4635;48.686;9.008;2022-11-24T20:20:42;2.90;99.90
9201;DHT22;4635;48.686;9.008;2022-11-24T20:23:13;2.90;99.90
9201;DHT22;4635;48.686;9.008;2022-11-24T20:25:47;2.80;99.90
9201;DHT22;4635;48.686;9.008;2022-11-24T20:28:24;2.80;99.90
9201;DHT22;4635;48.686;9.008;2022-11-24T20:31:02;2.80;99.90
9201;DHT22;4635;48.686;9.008;2022-11-24T20:34:03;2.80;99.90
9201;DHT22;4635;48.686;9.008;2022-11-24T20:36:42;2.70;99.90
9201;DHT22;4635;48.686;9.008;2022-11-24T20:39:14;2.70;99.90
9201;DHT22;4635;48.686;9.008;2022-11-24T20:41:44;2.70;99.90
9201;DHT22;4635;48.686;9.008;2022-11-24T20:44:16;2.60;99.90
9201;DHT22;4635;48.686;9.008;2022-11-24T20:46:49;2.60;99.90
9201;DHT22;4635;48.686;9.008;2022-11-24T20:49:23;2.60;99.90
9201;DHT22;4635;48.686;9.008;2022-11-24T20:51:54;2.60;99.90
9201;DHT22;4635;48.686;9.008;2022-11-24T20:54:26;2.50;99.90
9201;DHT22;4635;48.686;9.008;2022-11-24T20:57:07;2.10;99.90
9201;DHT22;4635;48.686;9.008;2022-11-24T20:59:41;2.40;99.90
9201;DHT22;4635;48.686;9.008;2022-11-24T21:02:09;2.30;99.90
9201;DHT22;4635;48.686;9.008;2022-11-24T21:04:41;2.30;99.90
9201;DHT22;4635;48.686;9.008;2022-11-24T21:07:14;2.30;99.90
9201;DHT22;4635;48.686;9.008;2022-11-24T21:10:12;2.30;99.90
9201;DHT22;4635;48.686;9.008;2022-11-24T21:12:47;2.30;99.90
9201;DHT22;4635;48.686;9.008;2022-11-24T21:15:16;2.20;99.90
9201;DHT22;4635;48.686;9.008;2022-11-24T21:17:48;2.20;99.90
9201;DHT22;4635;48.686;9.008;2022-11-24T21:20:26;2.20;99.90
9201;DHT22;4635;48.686;9.008;2022-11-24T21:22:57;1.70;99.90
9201;DHT22;4635;48.686;9.008;2022-11-24T21:25:33;2.00;99.90
9201;DHT22;4635;48.686;9.008;2022-11-24T21:28:18;2.10;99.90
9201;DHT22;4635;48.686;9.008;2022-11-24T21:30:46;2.10;99.90
9201;DHT22;4635;48.686;9.008;2022-11-24T21:33:18;2.10;99.90
9201;DHT22;4635;48.686;9.008;2022-11-24T21:36:14;2.10;99.90
9201;DHT22;4635;48.686;9.008;2022-11-24T21:39:03;2.10;99.90
9201;DHT22;4635;48.686;9.008;2022-11-24T21:41:54;2.00;99.90
9201;DHT22;4635;48.686;9.008;2022-11-24T21:44:42;2.00;99.90
9201;DHT22;4635;48.686;9.008;2022-11-24T21:47:18;1.90;99.90
9201;DHT22;4635;48.686;9.008;2022-11-24T21:49:56;1.90;99.90
9201;DHT22;4635;48.686;9.008;2022-11-24T21:55:56;1.70;99.90
9201;DHT22;4635;48.686;9.008;2022-11-24T21:58:30;1.70;99.90
9201;DHT22;4635;48.686;9.008;2022-11-24T22:01:22;1.80;99.90
9201;DHT22;4635;48.686;9.008;2022-11-24T22:04:02;1.70;99.90
9201;DHT22;4635;48.686;9.008;2022-11-24T22:07:01;1.70;99.90
9201;DHT22;4635;48.686;9.008;2022-11-24T22:09:33;1.70;99.90
9201;DHT22;4635;48.686;9.008;2022-11-24T22:12:05;1.70;99.90
9201;DHT22;4635;48.686;9.008;2022-11-24T22:14:34;1.60;99.90
9201;DHT22;4635;48.686;9.008;2022-11-24T22:17:11;1.50;99.90
9201;DHT22;4635;48.686;9.008;2022-11-24T22:19:40;1.50;99.90
9201;DHT22;4635;48.686;9.008;2022-11-24T22:22:08;1.50;99.90
9201;DHT22;4635;48.686;9.008;2022-11-24T22:24:56;1.40;99.90
9201;DHT22;4635;48.686;9.008;2022-11-24T22:27:25;1.40;99.90
9201;DHT22;4635;48.686;9.008;2022-11-24T22:30:14;1.40;99.90
9201;DHT22;4635;48.686;9.008;2022-11-24T22:32:47;1.30;99.90
9201;DHT22;4635;48.686;9.008;2022-11-24T22:35:24;1.30;99.90
9201;DHT22;4635;48.686;9.008;2022-11-24T22:37:56;1.30;99.90
9201;DHT22;4635;48.686;9.008;2022-11-24T22:40:25;1.20;99.90
9201;DHT22;4635;48.686;9.008;2022-11-24T22:43:02;1.40;99.90
9201;DHT22;4635;48.686;9.008;2022-11-24T22:45:42;1.50;99.90
9201;DHT22;4635;48.686;9.008;2022-11-24T22:48:18;1.80;4.60
9201;DHT22;4635;48.686;9.008;2022-11-24T22:50:47;1.50;99.90
9201;DHT22;4635;48.686;9.008;2022-11-24T22:53:15;1.50;99.90
9201;DHT22;4635;48.686;9.008;2022-11-24T22:55:45;1.50;99.90
9201;DHT22;4635;48.686;9.008;2022-11-24T22:58:16;1.20;99.90
9201;DHT22;4635;48.686;9.008;2022-11-24T23:00:46;1.40;99.90
9201;DHT22;4635;48.686;9.008;2022-11-24T23:03:43;1.30;99.90
9201;DHT22;4635;48.686;9.008;2022-11-24T23:06:22;1.30;99.90
9201;DHT22;4635;48.686;9.008;2022-11-24T23:08:51;1.20;99.90
9201;DHT22;4635;48.686;9.008;2022-11-24T23:11:28;1.20;99.90
9201;DHT22;4635;48.686;9.008;2022-11-24T23:14:05;1.20;99.90
9201;DHT22;4635;48.686;9.008;2022-11-24T23:16:34;1.10;99.90
9201;DHT22;4635;48.686;9.008;2022-11-24T23:19:07;1.00;99.90
9201;DHT22;4635;48.686;9.008;2022-11-24T23:21:50;1.00;99.90
9201;DHT22;4635;48.686;9.008;2022-11-24T23:24:21;1.00;99.90
9201;DHT22;4635;48.686;9.008;2022-11-24T23:26:53;0.90;99.90
9201;DHT22;4635;48.686;9.008;2022-11-24T23:29:21;1.00;99.90
9201;DHT22;4635;48.686;9.008;2022-11-24T23:31:59;1.00;1.00
9201;DHT22;4635;48.686;9.008;2022-11-24T23:34:39;1.00;1.00
9201;DHT22;4635;48.686;9.008;2022-11-24T23:37:16;1.00;1.00
9201;DHT22;4635;48.686;9.008;2022-11-24T23:39:59;1.00;1.00
9201;DHT22;4635;48.686;9.008;2022-11-24T23:42:37;1.20;31.90
9201;DHT22;4635;48.686;9.008;2022-11-24T23:45:06;1.00;22.50
9201;DHT22;4635;48.686;9.008;2022-11-24T23:47:39;0.60;38.10
9201;DHT22;4635;48.686;9.008;2022-11-24T23:50:12;0.90;17.80
9201;DHT22;4635;48.686;9.008;2022-11-24T23:52:51;0.90;18.90
9201;DHT22;4635;48.686;9.008;2022-11-24T23:55:24;1.00;4.50
9201;DHT22;4635;48.686;9.008;2022-11-24T23:57:55;0.90;24.20
